< < Back
Terminal Aerodrome Forecast


Current Version              Previous Versions:   1  2  3  4  5  6  7  8  9  

Terminal Aerodrome Forecast

419
FTUS42 KCHS 291130
TAFSAV
TAF
KSAV 291130Z 2912/3012 01005KT P6SM SCT005 SCT015
      TEMPO 2912/2913 BKN006
     FM291430 04007KT P6SM SCT020 BKN035
     FM291600 07009KT P6SM VCSH SCT035 BKN050
     FM300100 04005KT P6SM SCT030=



Latest METAR

030
SAUS80 KWBC 291900
MTRSAV
METAR KSAV 291853Z COR VRB03KT 10SM BKN035 BKN060 OVC180 32/22 A3003 RMK
AO2 SLP169 CB DSNT NE AND E AND S-SW T03170217


USA.gov is the U.S. government's official web portal to all federal, state and local government web resources and services.